createdAt,value
2018-09-13T00:00:13.295Z,3.00
2018-09-13T00:02:41.710Z,2.80
2018-09-13T00:05:10.171Z,2.80
2018-09-13T00:07:38.642Z,2.75
2018-09-13T00:10:07.125Z,3.20
2018-09-13T00:12:35.542Z,2.80
2018-09-13T00:15:04.099Z,2.80
2018-09-13T00:17:32.526Z,2.77
2018-09-13T00:20:00.964Z,2.80
2018-09-13T00:22:29.401Z,2.70
2018-09-13T00:24:57.981Z,2.80
2018-09-13T00:27:26.396Z,2.80
2018-09-13T00:29:54.862Z,2.77
2018-09-13T00:32:23.275Z,2.77
2018-09-13T00:34:51.710Z,2.80
2018-09-13T00:37:20.179Z,2.80
2018-09-13T00:39:48.578Z,2.92
2018-09-13T00:42:17.015Z,2.80
2018-09-13T00:44:45.419Z,2.83
2018-09-13T00:47:14.166Z,2.85
2018-09-13T00:49:43.485Z,2.90
2018-09-13T00:52:11.928Z,2.87
2018-09-13T00:54:40.341Z,2.90
2018-09-13T00:57:09.044Z,3.00
2018-09-13T00:59:37.451Z,3.00
2018-09-13T01:02:05.903Z,3.17
2018-09-13T01:04:34.433Z,3.00
2018-09-13T01:07:02.864Z,3.00
2018-09-13T01:09:31.295Z,2.95
2018-09-13T01:11:59.718Z,3.00
2018-09-13T01:14:28.164Z,3.30
2018-09-13T01:16:56.603Z,2.98
2018-09-13T01:19:25.040Z,3.02
2018-09-13T01:21:53.480Z,2.98
2018-09-13T01:24:21.888Z,3.00
2018-09-13T01:26:50.323Z,3.02
2018-09-13T01:29:18.742Z,3.00
2018-09-13T01:31:47.188Z,3.02
2018-09-13T01:34:15.594Z,2.98
2018-09-13T01:36:44.015Z,3.20
2018-09-13T01:39:12.452Z,3.30
2018-09-13T01:41:40.899Z,2.98
2018-09-13T01:44:09.819Z,2.98
2018-09-13T01:46:38.292Z,2.95
2018-09-13T01:49:06.735Z,3.05
2018-09-13T01:51:35.193Z,3.77
2018-09-13T01:54:03.614Z,3.20
2018-09-13T01:56:32.030Z,3.20
2018-09-13T01:59:00.471Z,3.10
2018-09-13T02:01:28.913Z,3.25
2018-09-13T02:03:57.356Z,3.15
2018-09-13T02:06:25.792Z,3.20
2018-09-13T02:08:54.227Z,3.05
2018-09-13T02:11:22.716Z,3.10
2018-09-13T02:13:51.167Z,3.10
2018-09-13T02:16:19.576Z,3.02
2018-09-13T02:18:48.050Z,3.67
2018-09-13T02:21:16.469Z,3.00
2018-09-13T02:23:45.015Z,3.50
2018-09-13T02:26:13.495Z,3.08
2018-09-13T02:28:42.323Z,3.02
2018-09-13T02:31:10.748Z,3.10
2018-09-13T02:33:39.183Z,3.05
2018-09-13T02:36:07.599Z,2.95
2018-09-13T02:38:36.063Z,3.27
2018-09-13T02:41:04.552Z,2.98
2018-09-13T02:43:32.996Z,2.95
2018-09-13T02:46:01.526Z,2.92
2018-09-13T02:48:29.974Z,3.00
2018-09-13T02:50:58.416Z,3.00
2018-09-13T02:53:26.876Z,3.00
2018-09-13T02:55:55.303Z,3.20
2018-09-13T02:58:23.762Z,6.00
2018-09-13T03:00:52.179Z,3.00
2018-09-13T03:03:20.615Z,3.10
2018-09-13T03:05:49.034Z,3.08
2018-09-13T03:08:17.548Z,3.08
2018-09-13T03:10:45.930Z,3.20
2018-09-13T03:13:14.386Z,3.20
2018-09-13T03:15:42.818Z,3.08
2018-09-13T03:18:11.278Z,3.85
2018-09-13T03:20:39.724Z,3.27
2018-09-13T03:23:08.191Z,3.20
2018-09-13T03:25:36.639Z,3.15
2018-09-13T03:28:05.096Z,3.10
2018-09-13T03:30:33.582Z,3.20
2018-09-13T03:33:02.039Z,3.15
2018-09-13T03:35:30.520Z,3.17
2018-09-13T03:37:58.964Z,3.17
2018-09-13T03:40:27.406Z,3.30
2018-09-13T03:42:55.844Z,3.20
2018-09-13T03:45:24.302Z,3.12
2018-09-13T03:47:52.734Z,3.10
2018-09-13T03:50:21.172Z,3.10
2018-09-13T03:52:49.591Z,3.12
2018-09-13T03:55:18.064Z,3.30
2018-09-13T03:57:46.517Z,3.20
2018-09-13T04:00:14.950Z,3.08
2018-09-13T04:02:43.379Z,3.00
2018-09-13T04:05:11.824Z,3.10
2018-09-13T04:07:40.239Z,2.95
2018-09-13T04:10:08.735Z,2.98
2018-09-13T04:12:37.152Z,2.95
2018-09-13T04:15:06.014Z,2.92
2018-09-13T04:17:34.464Z,3.10
2018-09-13T04:20:02.945Z,2.70
2018-09-13T04:22:31.382Z,2.90
2018-09-13T04:24:59.833Z,2.50
2018-09-13T04:27:28.256Z,2.60
2018-09-13T04:29:56.751Z,2.30
2018-09-13T04:32:25.194Z,2.17
2018-09-13T04:34:53.651Z,2.15
2018-09-13T04:37:22.082Z,2.10
2018-09-13T04:39:50.550Z,2.00
2018-09-13T04:42:18.986Z,2.00
2018-09-13T04:44:47.438Z,1.90
2018-09-13T04:47:15.896Z,2.00
2018-09-13T04:49:44.359Z,2.00
2018-09-13T04:52:12.834Z,1.92
2018-09-13T04:54:41.244Z,2.10
2018-09-13T04:57:09.695Z,2.00
2018-09-13T04:59:38.098Z,2.00
2018-09-13T05:02:06.554Z,2.10
2018-09-13T05:04:34.958Z,2.50
2018-09-13T05:07:03.398Z,2.00
2018-09-13T05:09:31.798Z,2.10
2018-09-13T05:12:00.222Z,2.00
2018-09-13T05:14:28.644Z,4.30
2018-09-13T05:16:57.079Z,2.20
2018-09-13T05:19:25.499Z,2.40
2018-09-13T05:21:53.938Z,1.90
2018-09-13T05:24:22.408Z,1.98
2018-09-13T05:26:50.803Z,2.10
2018-09-13T05:29:19.222Z,2.20
2018-09-13T05:31:47.709Z,2.05
2018-09-13T05:34:16.071Z,2.10
2018-09-13T05:36:44.512Z,1.90
2018-09-13T05:39:14.164Z,1.90
2018-09-13T05:41:43.670Z,1.95
2018-09-13T05:44:12.738Z,2.00
2018-09-13T05:46:41.235Z,2.00
2018-09-13T05:49:10.021Z,1.98
2018-09-13T05:51:38.436Z,2.10
2018-09-13T05:54:06.914Z,1.87
2018-09-13T05:56:35.336Z,2.22
2018-09-13T05:59:03.802Z,2.02
2018-09-13T06:01:32.263Z,2.20
2018-09-13T06:04:00.704Z,2.05
2018-09-13T06:06:29.126Z,2.00
2018-09-13T06:08:57.551Z,2.10
2018-09-13T06:11:25.969Z,2.30
2018-09-13T06:13:54.407Z,2.15
2018-09-13T06:16:22.889Z,2.20
2018-09-13T06:18:51.319Z,2.27
2018-09-13T06:21:19.730Z,2.62
2018-09-13T06:23:48.179Z,2.40
2018-09-13T06:26:16.640Z,2.30
2018-09-13T06:28:45.091Z,2.35
2018-09-13T06:31:13.510Z,2.37
2018-09-13T06:33:42.046Z,2.40
2018-09-13T06:36:10.511Z,2.60
2018-09-13T06:38:39.014Z,2.30
2018-09-13T06:41:07.434Z,2.30
2018-09-13T06:43:35.874Z,3.00
2018-09-13T06:46:04.302Z,2.22
2018-09-13T06:48:32.798Z,2.30
2018-09-13T06:51:01.209Z,2.30
2018-09-13T06:53:29.650Z,2.30
2018-09-13T06:55:58.062Z,2.30
2018-09-13T06:58:26.515Z,2.30
2018-09-13T07:00:54.932Z,2.50
2018-09-13T07:03:23.382Z,2.40
2018-09-13T07:05:51.804Z,2.40
2018-09-13T07:08:20.254Z,2.30
2018-09-13T07:10:48.714Z,2.77
2018-09-13T07:13:17.123Z,2.83
2018-09-13T07:15:45.544Z,2.92
2018-09-13T07:18:13.963Z,5.30
2018-09-13T07:20:42.403Z,2.70
2018-09-13T07:23:10.823Z,2.70
2018-09-13T07:25:39.259Z,3.10
2018-09-13T07:28:07.667Z,2.60
2018-09-13T07:30:36.100Z,2.80
2018-09-13T07:33:04.508Z,2.75
2018-09-13T07:35:32.938Z,2.80
2018-09-13T07:38:01.368Z,3.20
2018-09-13T07:40:29.814Z,2.75
2018-09-13T07:42:58.359Z,2.90
2018-09-13T07:45:26.687Z,2.90
2018-09-13T07:47:55.090Z,2.62
2018-09-13T07:50:23.516Z,2.80
2018-09-13T07:52:51.967Z,3.95
2018-09-13T07:55:20.404Z,3.10
2018-09-13T07:57:48.827Z,2.90
2018-09-13T08:00:17.267Z,3.10
2018-09-13T08:02:45.674Z,3.10
2018-09-13T08:05:14.112Z,3.00
2018-09-13T08:07:42.583Z,3.50
2018-09-13T08:10:11.046Z,3.00
2018-09-13T08:12:39.472Z,3.20
2018-09-13T08:15:07.923Z,3.30
2018-09-13T08:17:37.184Z,3.40
2018-09-13T08:20:05.630Z,3.30
2018-09-13T08:22:34.038Z,3.10
2018-09-13T08:25:02.838Z,3.50
2018-09-13T08:27:31.283Z,3.10
2018-09-13T08:30:00.052Z,3.33
2018-09-13T08:32:28.484Z,3.30
2018-09-13T08:34:57.638Z,3.12
2018-09-13T08:37:25.981Z,3.60
2018-09-13T08:39:54.491Z,4.08
2018-09-13T08:42:22.966Z,3.30
2018-09-13T08:44:51.598Z,3.62
2018-09-13T08:47:20.020Z,3.35
2018-09-13T08:49:48.471Z,3.10
2018-09-13T08:52:16.896Z,3.20
2018-09-13T08:54:45.319Z,3.50
2018-09-13T08:57:13.742Z,3.95
2018-09-13T08:59:42.161Z,3.40
2018-09-13T09:02:10.605Z,5.05
2018-09-13T09:04:39.035Z,4.10
2018-09-13T09:07:07.504Z,3.12
2018-09-13T09:09:35.906Z,3.58
2018-09-13T09:12:04.396Z,3.30
2018-09-13T09:14:32.839Z,3.85
2018-09-13T09:17:01.289Z,3.15
2018-09-13T09:19:29.709Z,3.27
2018-09-13T09:21:58.147Z,3.50
2018-09-13T09:24:26.595Z,3.40
2018-09-13T09:26:55.027Z,4.17
2018-09-13T09:29:23.507Z,3.35
2018-09-13T09:31:51.958Z,3.10
2018-09-13T09:34:20.375Z,3.22
2018-09-13T09:36:48.802Z,3.20
2018-09-13T09:39:17.272Z,3.30
2018-09-13T09:41:45.731Z,3.30
2018-09-13T09:44:14.275Z,3.60
2018-09-13T09:46:42.703Z,3.30
2018-09-13T09:49:11.148Z,3.30
2018-09-13T09:51:39.663Z,3.15
2018-09-13T09:54:08.100Z,3.30
2018-09-13T09:56:36.583Z,3.20
2018-09-13T09:59:05.019Z,3.40
2018-09-13T10:01:34.027Z,3.50
2018-09-13T10:04:02.471Z,5.22
2018-09-13T10:06:30.955Z,3.30
2018-09-13T10:08:59.435Z,3.80
2018-09-13T10:11:27.883Z,3.37
2018-09-13T10:13:56.303Z,3.40
2018-09-13T10:16:30.148Z,3.60
2018-09-13T10:19:03.987Z,3.30
2018-09-13T10:21:37.765Z,3.70
2018-09-13T10:24:11.418Z,3.22
2018-09-13T10:26:45.424Z,3.30
2018-09-13T10:29:19.323Z,3.60
2018-09-13T10:31:53.042Z,4.17
2018-09-13T10:34:26.887Z,3.58
2018-09-13T10:37:00.652Z,3.37
2018-09-13T10:39:34.357Z,3.90
2018-09-13T10:42:08.101Z,3.42
2018-09-13T10:44:41.939Z,3.80
2018-09-13T10:47:15.711Z,3.58
2018-09-13T10:49:49.573Z,3.50
2018-09-13T10:52:19.568Z,3.42
2018-09-13T10:54:47.973Z,3.30
2018-09-13T10:57:21.692Z,3.60
2018-09-13T10:59:50.139Z,4.05
2018-09-13T11:02:18.622Z,3.30
2018-09-13T11:04:47.114Z,3.55
2018-09-13T11:07:15.547Z,3.60
2018-09-13T11:09:43.979Z,3.87
2018-09-13T11:12:12.444Z,3.43
2018-09-13T11:14:48.143Z,3.60
2018-09-13T11:17:16.611Z,3.50
2018-09-13T11:19:45.036Z,3.50
2018-09-13T11:22:13.524Z,3.30
2018-09-13T11:24:42.000Z,3.83
2018-09-13T11:27:10.490Z,3.90
2018-09-13T11:29:39.071Z,3.43
2018-09-13T11:32:07.700Z,3.60
2018-09-13T11:34:36.192Z,3.47
2018-09-13T11:37:04.623Z,3.30
2018-09-13T11:39:33.107Z,3.70
2018-09-13T11:42:01.590Z,3.50
2018-09-13T11:44:30.103Z,3.40
2018-09-13T11:46:58.681Z,3.33
2018-09-13T11:49:27.159Z,3.47
2018-09-13T11:51:55.930Z,3.63
2018-09-13T11:54:24.378Z,3.37
2018-09-13T11:56:52.795Z,3.60
2018-09-13T11:59:21.273Z,3.60
2018-09-13T12:01:49.789Z,3.60
2018-09-13T12:04:18.263Z,3.83
2018-09-13T12:06:46.695Z,3.93
2018-09-13T12:09:15.799Z,3.40
2018-09-13T12:11:44.339Z,3.33
2018-09-13T12:14:12.784Z,3.50
2018-09-13T12:16:41.235Z,3.30
2018-09-13T12:19:09.762Z,3.50
2018-09-13T12:21:38.208Z,3.30
2018-09-13T12:24:06.674Z,3.40
2018-09-13T12:26:35.094Z,3.40
2018-09-13T12:29:06.522Z,3.73
2018-09-13T12:31:34.957Z,3.97
2018-09-13T12:34:03.442Z,3.47
2018-09-13T12:36:31.886Z,4.10
2018-09-13T12:39:00.418Z,3.47
2018-09-13T12:41:28.864Z,3.50
2018-09-13T12:43:57.350Z,3.70
2018-09-13T12:46:25.777Z,3.60
2018-09-13T12:48:54.227Z,3.40
2018-09-13T12:51:22.647Z,3.40
2018-09-13T12:53:51.077Z,3.37
2018-09-13T12:56:19.558Z,3.50
2018-09-13T12:58:48.066Z,3.60
2018-09-13T13:01:16.532Z,3.80
2018-09-13T13:03:44.961Z,4.10
2018-09-13T13:06:14.464Z,3.33
2018-09-13T13:08:42.956Z,3.80
2018-09-13T13:11:11.395Z,4.40
2018-09-13T13:13:39.820Z,3.37
2018-09-13T13:16:08.299Z,4.00
2018-09-13T13:18:36.817Z,3.90
2018-09-13T13:21:05.432Z,3.77
2018-09-13T13:23:33.939Z,3.50
2018-09-13T13:26:02.440Z,3.50
2018-09-13T13:28:30.906Z,4.47
2018-09-13T13:30:59.388Z,3.50
2018-09-13T13:33:27.828Z,3.40
2018-09-13T13:35:56.307Z,3.60
2018-09-13T13:38:24.811Z,3.80
2018-09-13T13:40:53.260Z,3.33
2018-09-13T13:43:21.700Z,3.60
2018-09-13T13:45:50.167Z,3.40
2018-09-13T13:48:18.748Z,3.30
2018-09-13T13:50:47.211Z,3.30
2018-09-13T13:53:15.642Z,5.67
2018-09-13T13:55:44.487Z,3.50
2018-09-13T13:58:12.943Z,4.00
2018-09-13T14:00:41.392Z,3.70
2018-09-13T14:03:09.831Z,3.43
2018-09-13T14:05:38.275Z,3.50
2018-09-13T14:08:06.810Z,3.53
2018-09-13T14:10:35.258Z,3.50
2018-09-13T14:13:03.698Z,3.60
2018-09-13T14:15:32.151Z,3.60
2018-09-13T14:18:00.600Z,3.40
2018-09-13T14:20:29.151Z,4.13
2018-09-13T14:22:57.682Z,3.50
2018-09-13T14:25:26.348Z,3.83
2018-09-13T14:27:54.932Z,3.37
2018-09-13T14:30:23.351Z,3.60
2018-09-13T14:32:51.835Z,3.70
2018-09-13T14:35:20.283Z,3.87
2018-09-13T14:37:48.760Z,3.60
2018-09-13T14:40:17.194Z,4.13
2018-09-13T14:42:45.651Z,3.60
2018-09-13T14:45:14.086Z,3.43
2018-09-13T14:47:42.639Z,3.37
2018-09-13T14:50:11.023Z,3.53
2018-09-13T14:52:39.483Z,3.42
2018-09-13T14:55:07.985Z,3.40
2018-09-13T14:57:36.458Z,3.77
2018-09-13T15:00:05.043Z,3.22
2018-09-13T15:02:33.507Z,3.55
2018-09-13T15:05:01.996Z,3.35
2018-09-13T15:07:30.469Z,4.67
2018-09-13T15:09:58.995Z,3.60
2018-09-13T15:12:27.472Z,3.50
2018-09-13T15:14:55.975Z,3.33
2018-09-13T15:17:24.496Z,3.10
2018-09-13T15:19:52.954Z,3.65
2018-09-13T15:22:21.412Z,3.20
2018-09-13T15:24:49.899Z,3.20
2018-09-13T15:27:18.326Z,3.50
2018-09-13T15:29:46.808Z,3.47
2018-09-13T15:32:15.268Z,3.30
2018-09-13T15:34:43.709Z,3.15
2018-09-13T15:37:12.155Z,3.02
2018-09-13T15:39:40.620Z,3.42
2018-09-13T15:42:09.039Z,3.87
2018-09-13T15:44:37.478Z,3.20
2018-09-13T15:47:05.967Z,3.00
2018-09-13T15:49:34.426Z,3.10
2018-09-13T15:52:02.854Z,2.72
2018-09-13T15:54:31.626Z,2.80
2018-09-13T15:57:00.035Z,2.65
2018-09-13T15:59:28.550Z,2.60
2018-09-13T16:01:57.004Z,2.40
2018-09-13T16:04:25.451Z,2.30
2018-09-13T16:06:53.870Z,3.12
2018-09-13T16:09:22.310Z,2.50
2018-09-13T16:11:50.735Z,2.15
2018-09-13T16:14:19.171Z,2.10
2018-09-13T16:16:47.590Z,2.00
2018-09-13T16:19:16.035Z,3.85
2018-09-13T16:21:44.461Z,2.10
2018-09-13T16:24:12.989Z,1.90
2018-09-13T16:26:41.426Z,1.90
2018-09-13T16:29:10.331Z,2.00
2018-09-13T16:31:38.840Z,1.90
2018-09-13T16:34:07.404Z,2.00
2018-09-13T16:36:45.324Z,2.08
2018-09-13T16:39:27.508Z,2.02
2018-09-13T16:43:03.903Z,2.12
2018-09-13T16:45:32.347Z,1.95
2018-09-13T16:48:02.183Z,2.80
2018-09-13T16:50:32.920Z,2.00
2018-09-13T16:53:01.403Z,1.90
2018-09-13T16:55:29.876Z,2.00
2018-09-13T16:57:58.293Z,2.02
2018-09-13T17:00:27.274Z,2.30
2018-09-13T17:02:56.111Z,2.20
2018-09-13T17:05:25.651Z,2.10
2018-09-13T17:07:54.952Z,2.45
2018-09-13T17:10:23.385Z,1.90
2018-09-13T17:12:52.507Z,1.90
2018-09-13T17:15:21.042Z,2.00
2018-09-13T17:17:49.487Z,1.98
2018-09-13T17:20:18.708Z,2.50
2018-09-13T17:22:47.115Z,1.80
2018-09-13T17:25:15.551Z,2.20
2018-09-13T17:27:44.003Z,2.00
2018-09-13T17:30:12.508Z,2.10
2018-09-13T17:32:40.918Z,1.95
2018-09-13T17:35:09.360Z,2.42
2018-09-13T17:37:37.788Z,1.92
2018-09-13T17:40:06.296Z,2.00
2018-09-13T17:42:34.712Z,1.90
2018-09-13T17:45:03.185Z,2.10
2018-09-13T17:47:31.646Z,2.10
2018-09-13T17:50:00.110Z,2.30
2018-09-13T17:52:28.546Z,2.00
2018-09-13T17:54:57.072Z,2.00
2018-09-13T17:57:25.519Z,1.90
2018-09-13T17:59:53.962Z,2.20
2018-09-13T18:02:22.374Z,1.98
2018-09-13T18:04:50.826Z,1.85
2018-09-13T18:07:19.244Z,1.85
2018-09-13T18:09:47.651Z,1.87
2018-09-13T18:12:16.128Z,1.82
2018-09-13T18:14:44.606Z,1.80
2018-09-13T18:17:13.045Z,1.90
2018-09-13T18:19:41.530Z,3.75
2018-09-13T18:22:09.978Z,2.00
2018-09-13T18:24:38.390Z,1.70
2018-09-13T18:27:06.851Z,2.10
2018-09-13T18:29:35.295Z,1.82
2018-09-13T18:32:03.766Z,2.30
2018-09-13T18:34:32.184Z,1.70
2018-09-13T18:37:00.667Z,1.77
2018-09-13T18:39:29.112Z,2.72
2018-09-13T18:41:57.551Z,1.70
2018-09-13T18:44:25.971Z,1.75
2018-09-13T18:46:54.438Z,1.75
2018-09-13T18:49:22.932Z,1.80
2018-09-13T18:51:51.647Z,1.80
2018-09-13T18:54:20.193Z,1.80
2018-09-13T18:56:48.622Z,1.80
2018-09-13T18:59:17.103Z,2.00
2018-09-13T19:01:45.560Z,2.00
2018-09-13T19:04:13.998Z,2.27
2018-09-13T19:06:42.464Z,2.00
2018-09-13T19:09:11.971Z,1.80
2018-09-13T19:11:40.440Z,4.20
2018-09-13T19:14:08.851Z,1.82
2018-09-13T19:16:37.311Z,1.98
2018-09-13T19:19:05.811Z,2.47
2018-09-13T19:21:34.292Z,1.60
2018-09-13T19:24:02.716Z,1.65
2018-09-13T19:26:31.206Z,1.67
2018-09-13T19:28:59.694Z,1.90
2018-09-13T19:31:28.123Z,1.95
2018-09-13T19:33:56.570Z,1.60
2018-09-13T19:36:25.044Z,1.80
2018-09-13T19:38:53.590Z,1.65
2018-09-13T19:41:22.039Z,1.70
2018-09-13T19:43:50.499Z,1.80
2018-09-13T19:46:19.014Z,4.35
2018-09-13T19:48:47.614Z,1.80
2018-09-13T19:51:16.051Z,1.72
2018-09-13T19:53:44.491Z,1.65
2018-09-13T19:56:13.142Z,1.70
2018-09-13T19:58:41.626Z,2.30
2018-09-13T20:01:10.082Z,1.65
2018-09-13T20:03:38.554Z,1.67
2018-09-13T20:06:07.029Z,1.60
2018-09-13T20:08:35.513Z,1.60
2018-09-13T20:11:03.993Z,1.70
2018-09-13T20:13:32.457Z,1.65
2018-09-13T20:16:00.908Z,1.80
2018-09-13T20:18:29.460Z,1.80
2018-09-13T20:20:57.826Z,1.90
2018-09-13T20:23:26.309Z,2.37
2018-09-13T20:25:54.770Z,1.70
2018-09-13T20:28:23.227Z,1.80
2018-09-13T20:30:51.698Z,2.08
2018-09-13T20:33:20.123Z,1.80
2018-09-13T20:35:48.582Z,2.35
2018-09-13T20:38:17.027Z,1.57
2018-09-13T20:40:45.479Z,1.80
2018-09-13T20:43:13.934Z,1.60
2018-09-13T20:45:42.497Z,1.80
2018-09-13T20:48:10.897Z,1.70
2018-09-13T20:50:39.339Z,1.70
2018-09-13T20:53:07.803Z,2.00
2018-09-13T20:55:36.354Z,1.65
2018-09-13T20:58:05.623Z,2.60
2018-09-13T21:00:34.120Z,1.80
2018-09-13T21:03:02.503Z,2.33
2018-09-13T21:05:30.947Z,1.90
2018-09-13T21:07:59.383Z,1.70
2018-09-13T21:10:28.144Z,1.87
2018-09-13T21:12:56.699Z,1.70
2018-09-13T21:15:25.184Z,4.50
2018-09-13T21:17:53.610Z,1.70
2018-09-13T21:20:22.059Z,1.70
2018-09-13T21:22:50.716Z,1.80
2018-09-13T21:25:19.252Z,1.90
2018-09-13T21:27:47.694Z,2.10
2018-09-13T21:30:16.154Z,2.00
2018-09-13T21:32:44.611Z,1.80
2018-09-13T21:35:13.031Z,1.70
2018-09-13T21:37:41.464Z,2.20
2018-09-13T21:40:10.189Z,1.80
2018-09-13T21:42:38.614Z,1.70
2018-09-13T21:45:07.147Z,2.37
2018-09-13T21:47:35.720Z,2.17
2018-09-13T21:50:04.470Z,2.00
2018-09-13T21:52:32.884Z,2.20
2018-09-13T21:55:01.307Z,1.87
2018-09-13T21:57:29.722Z,2.02
2018-09-13T21:59:58.146Z,2.00
2018-09-13T22:02:26.559Z,1.90
2018-09-13T22:04:55.064Z,2.00
2018-09-13T22:07:23.488Z,1.80
2018-09-13T22:09:51.900Z,1.82
2018-09-13T22:12:20.337Z,2.10
2018-09-13T22:14:48.764Z,1.90
2018-09-13T22:17:17.213Z,2.00
2018-09-13T22:19:45.643Z,2.00
2018-09-13T22:22:14.071Z,2.77
2018-09-13T22:24:42.604Z,1.70
2018-09-13T22:27:11.051Z,1.77
2018-09-13T22:29:39.463Z,2.30
2018-09-13T22:32:07.956Z,1.75
2018-09-13T22:34:36.430Z,2.00
2018-09-13T22:37:04.863Z,2.10
2018-09-13T22:39:33.323Z,2.00
2018-09-13T22:42:01.758Z,1.98
2018-09-13T22:44:34.419Z,1.70
2018-09-13T22:47:02.854Z,1.65
2018-09-13T22:49:31.254Z,1.60
2018-09-13T22:52:00.722Z,1.70
2018-09-13T22:54:29.140Z,1.77
2018-09-13T22:56:57.631Z,1.70
2018-09-13T22:59:26.039Z,1.98
2018-09-13T23:01:54.978Z,1.77
2018-09-13T23:04:23.366Z,1.90
2018-09-13T23:06:51.943Z,2.00
2018-09-13T23:09:20.348Z,2.67
2018-09-13T23:11:48.799Z,2.10
2018-09-13T23:14:17.219Z,1.80
2018-09-13T23:16:49.578Z,2.00
2018-09-13T23:19:14.158Z,1.70
2018-09-13T23:21:42.632Z,1.80
2018-09-13T23:24:11.039Z,2.25
2018-09-13T23:26:39.479Z,1.90
2018-09-13T23:29:08.005Z,2.47
2018-09-13T23:31:36.409Z,1.80
2018-09-13T23:34:04.814Z,1.75
2018-09-13T23:36:33.207Z,1.77
2018-09-13T23:39:01.693Z,1.90
2018-09-13T23:41:30.079Z,1.70
2018-09-13T23:43:58.506Z,1.80
2018-09-13T23:46:26.953Z,2.10
2018-09-13T23:48:55.314Z,2.33
2018-09-13T23:51:23.714Z,1.80
2018-09-13T23:53:52.118Z,1.92
2018-09-13T23:56:20.566Z,1.75
2018-09-13T23:58:48.992Z,2.10
